sensor_id;sensor_type;location;lat;lon;timestamp;pressure;altitude;pressure_sealevel;temperature;humidity
47154;BME280;32907;41.412;2.164;2023-12-22T00:02:15;100780.00;;;19.72;39.60
47154;BME280;32907;41.412;2.164;2023-12-22T00:04:43;100770.00;;;19.68;39.54
47154;BME280;32907;41.412;2.164;2023-12-22T00:07:11;100772.41;;;19.74;39.06
47154;BME280;32907;41.412;2.164;2023-12-22T00:09:39;100768.06;;;19.73;39.43
47154;BME280;32907;41.412;2.164;2023-12-22T00:12:07;100769.13;;;19.72;39.22
47154;BME280;32907;41.412;2.164;2023-12-22T00:14:35;100761.25;;;19.71;39.05
47154;BME280;32907;41.412;2.164;2023-12-22T00:17:05;100746.84;;;19.70;39.12
47154;BME280;32907;41.412;2.164;2023-12-22T00:19:33;100759.63;;;19.70;38.90
47154;BME280;32907;41.412;2.164;2023-12-22T00:22:01;100752.81;;;19.72;38.81
47154;BME280;32907;41.412;2.164;2023-12-22T00:24:31;100748.78;;;19.65;38.99
47154;BME280;32907;41.412;2.164;2023-12-22T00:26:59;100732.13;;;19.71;38.80
47154;BME280;32907;41.412;2.164;2023-12-22T00:29:28;100735.97;;;19.70;38.40
47154;BME280;32907;41.412;2.164;2023-12-22T00:31:56;100746.53;;;19.72;38.88
47154;BME280;32907;41.412;2.164;2023-12-22T00:34:24;100732.69;;;19.73;38.68
47154;BME280;32907;41.412;2.164;2023-12-22T00:36:52;100725.59;;;19.72;38.38
47154;BME280;32907;41.412;2.164;2023-12-22T00:39:20;100729.97;;;19.73;38.64
47154;BME280;32907;41.412;2.164;2023-12-22T00:41:50;100692.94;;;19.72;38.28
47154;BME280;32907;41.412;2.164;2023-12-22T00:44:18;100683.16;;;19.71;38.54
47154;BME280;32907;41.412;2.164;2023-12-22T00:46:46;100668.47;;;19.72;38.27
47154;BME280;32907;41.412;2.164;2023-12-22T00:49:14;100683.72;;;19.73;38.11
47154;BME280;32907;41.412;2.164;2023-12-22T00:51:42;100692.72;;;19.69;38.25
47154;BME280;32907;41.412;2.164;2023-12-22T00:54:11;100677.53;;;19.63;38.00
47154;BME280;32907;41.412;2.164;2023-12-22T00:56:39;100679.41;;;19.67;38.15
47154;BME280;32907;41.412;2.164;2023-12-22T00:59:07;100659.00;;;19.65;38.67
47154;BME280;32907;41.412;2.164;2023-12-22T01:01:38;100678.34;;;19.63;38.37
47154;BME280;32907;41.412;2.164;2023-12-22T01:04:07;100649.22;;;19.64;38.52
47154;BME280;32907;41.412;2.164;2023-12-22T01:06:39;100655.47;;;19.64;38.44
47154;BME280;32907;41.412;2.164;2023-12-22T01:09:07;100630.81;;;19.50;38.47
47154;BME280;32907;41.412;2.164;2023-12-22T01:11:35;100631.34;;;19.58;38.38
47154;BME280;32907;41.412;2.164;2023-12-22T01:14:05;100620.75;;;19.51;38.16
47154;BME280;32907;41.412;2.164;2023-12-22T01:16:34;100649.81;;;19.55;38.54
47154;BME280;32907;41.412;2.164;2023-12-22T01:19:03;100683.53;;;19.54;38.56
47154;BME280;32907;41.412;2.164;2023-12-22T01:21:31;100664.78;;;19.53;38.15
47154;BME280;32907;41.412;2.164;2023-12-22T01:23:59;100684.66;;;19.53;38.03
47154;BME280;32907;41.412;2.164;2023-12-22T01:26:28;100698.53;;;19.52;38.27
47154;BME280;32907;41.412;2.164;2023-12-22T01:28:56;100699.91;;;19.49;37.91
47154;BME280;32907;41.412;2.164;2023-12-22T01:31:24;100709.97;;;19.49;38.29
47154;BME280;32907;41.412;2.164;2023-12-22T01:33:53;100719.22;;;19.48;38.07
47154;BME280;32907;41.412;2.164;2023-12-22T01:36:22;100715.97;;;19.46;38.43
47154;BME280;32907;41.412;2.164;2023-12-22T01:38:50;100729.00;;;19.49;38.19
47154;BME280;32907;41.412;2.164;2023-12-22T01:41:18;100733.69;;;19.43;38.60
47154;BME280;32907;41.412;2.164;2023-12-22T01:43:46;100748.59;;;19.46;38.19
47154;BME280;32907;41.412;2.164;2023-12-22T01:46:15;100770.38;;;19.46;38.06
47154;BME280;32907;41.412;2.164;2023-12-22T01:48:43;100773.38;;;19.44;38.22
47154;BME280;32907;41.412;2.164;2023-12-22T01:51:11;100773.94;;;19.41;38.32
47154;BME280;32907;41.412;2.164;2023-12-22T01:53:40;100770.66;;;19.39;38.21
47154;BME280;32907;41.412;2.164;2023-12-22T01:56:08;100802.69;;;19.52;38.09
47154;BME280;32907;41.412;2.164;2023-12-22T01:58:37;100803.22;;;19.54;38.42
47154;BME280;32907;41.412;2.164;2023-12-22T02:01:17;100797.03;;;19.44;38.17
47154;BME280;32907;41.412;2.164;2023-12-22T02:03:46;100819.03;;;19.58;38.39
47154;BME280;32907;41.412;2.164;2023-12-22T02:06:16;100814.41;;;19.58;38.28
47154;BME280;32907;41.412;2.164;2023-12-22T02:08:46;100815.75;;;19.61;37.89
47154;BME280;32907;41.412;2.164;2023-12-22T02:11:15;100811.09;;;19.61;38.12
47154;BME280;32907;41.412;2.164;2023-12-22T02:13:43;100783.97;;;19.41;38.15
47154;BME280;32907;41.412;2.164;2023-12-22T02:19:09;100832.06;;;19.61;38.15
47154;BME280;32907;41.412;2.164;2023-12-22T02:22:02;100824.47;;;19.58;38.13
47154;BME280;32907;41.412;2.164;2023-12-22T02:24:36;100825.28;;;19.53;38.21
47154;BME280;32907;41.412;2.164;2023-12-22T02:27:06;100828.81;;;19.53;38.26
47154;BME280;32907;41.412;2.164;2023-12-22T02:29:42;100833.97;;;19.55;37.99
47154;BME280;32907;41.412;2.164;2023-12-22T02:32:17;100828.50;;;19.55;38.04
47154;BME280;32907;41.412;2.164;2023-12-22T02:34:50;100825.56;;;19.51;37.89
47154;BME280;32907;41.412;2.164;2023-12-22T02:37:20;100816.03;;;19.49;38.24
47154;BME280;32907;41.412;2.164;2023-12-22T02:39:51;100828.00;;;19.48;38.15
47154;BME280;32907;41.412;2.164;2023-12-22T02:42:21;100831.00;;;19.51;38.10
47154;BME280;32907;41.412;2.164;2023-12-22T02:44:52;100841.06;;;19.46;38.44
47154;BME280;32907;41.412;2.164;2023-12-22T02:47:21;100857.41;;;19.46;38.14
47154;BME280;32907;41.412;2.164;2023-12-22T02:49:49;100859.84;;;19.47;38.25
47154;BME280;32907;41.412;2.164;2023-12-22T02:52:17;100880.78;;;19.47;38.26
47154;BME280;32907;41.412;2.164;2023-12-22T02:54:45;100894.13;;;19.43;38.21
47154;BME280;32907;41.412;2.164;2023-12-22T02:57:15;100876.47;;;19.36;38.43
47154;BME280;32907;41.412;2.164;2023-12-22T02:59:43;100896.84;;;19.43;38.54
47154;BME280;32907;41.412;2.164;2023-12-22T03:02:11;100897.09;;;19.47;38.33
47154;BME280;32907;41.412;2.164;2023-12-22T03:04:40;100895.22;;;19.42;38.62
47154;BME280;32907;41.412;2.164;2023-12-22T03:07:08;100880.81;;;19.42;38.61
47154;BME280;32907;41.412;2.164;2023-12-22T03:09:36;100878.09;;;19.42;38.45
47154;BME280;32907;41.412;2.164;2023-12-22T03:12:07;100872.38;;;19.38;38.81
47154;BME280;32907;41.412;2.164;2023-12-22T03:14:35;100872.09;;;19.40;38.38
47154;BME280;32907;41.412;2.164;2023-12-22T03:17:06;100872.38;;;19.38;38.62
47154;BME280;32907;41.412;2.164;2023-12-22T03:19:34;100873.19;;;19.39;38.51
47154;BME280;32907;41.412;2.164;2023-12-22T03:22:02;100876.25;;;19.27;38.64
47154;BME280;32907;41.412;2.164;2023-12-22T03:24:30;100905.06;;;19.33;38.75
47154;BME280;32907;41.412;2.164;2023-12-22T03:26:58;100898.25;;;19.31;38.79
47154;BME280;32907;41.412;2.164;2023-12-22T03:29:26;100896.63;;;19.29;38.34
47154;BME280;32907;41.412;2.164;2023-12-22T03:31:55;100898.53;;;19.29;38.69
47154;BME280;32907;41.412;2.164;2023-12-22T03:34:23;100905.34;;;19.26;38.67
47154;BME280;32907;41.412;2.164;2023-12-22T03:36:51;100879.25;;;19.25;38.68
47154;BME280;32907;41.412;2.164;2023-12-22T03:39:19;100886.03;;;19.23;38.65
47154;BME280;32907;41.412;2.164;2023-12-22T03:41:47;100877.34;;;19.21;38.60
47154;BME280;32907;41.412;2.164;2023-12-22T03:44:16;100880.88;;;19.21;38.80
47154;BME280;32907;41.412;2.164;2023-12-22T03:46:44;100877.34;;;19.21;38.79
47154;BME280;32907;41.412;2.164;2023-12-22T03:49:12;100872.19;;;19.19;38.38
47154;BME280;32907;41.412;2.164;2023-12-22T03:51:41;100860.78;;;19.17;38.58
47154;BME280;32907;41.412;2.164;2023-12-22T03:54:09;100863.75;;;19.21;38.73
47154;BME280;32907;41.412;2.164;2023-12-22T03:56:38;100858.03;;;19.22;38.85
47154;BME280;32907;41.412;2.164;2023-12-22T03:59:06;100850.41;;;19.24;38.35
47154;BME280;32907;41.412;2.164;2023-12-22T04:01:34;100860.47;;;19.24;38.22
47154;BME280;32907;41.412;2.164;2023-12-22T04:04:02;100862.38;;;19.23;38.21
47154;BME280;32907;41.412;2.164;2023-12-22T04:06:30;100856.94;;;19.23;38.27
47154;BME280;32907;41.412;2.164;2023-12-22T04:08:58;100843.91;;;19.15;38.22
47154;BME280;32907;41.412;2.164;2023-12-22T04:11:27;100840.38;;;19.15;38.16
47154;BME280;32907;41.412;2.164;2023-12-22T04:13:55;100863.47;;;19.22;38.05
47154;BME280;32907;41.412;2.164;2023-12-22T04:16:24;100851.25;;;19.15;38.09
47154;BME280;32907;41.412;2.164;2023-12-22T04:18:52;100860.22;;;19.20;38.06
47154;BME280;32907;41.412;2.164;2023-12-22T04:21:20;100856.97;;;19.18;38.37
47154;BME280;32907;41.412;2.164;2023-12-22T04:23:48;100859.13;;;19.16;37.84
47154;BME280;32907;41.412;2.164;2023-12-22T04:26:17;100867.03;;;19.18;38.18
47154;BME280;32907;41.412;2.164;2023-12-22T04:28:45;100846.63;;;19.15;38.01
47154;BME280;32907;41.412;2.164;2023-12-22T04:31:13;100840.66;;;19.18;37.81
47154;BME280;32907;41.412;2.164;2023-12-22T04:33:41;100859.69;;;19.18;38.02
47154;BME280;32907;41.412;2.164;2023-12-22T04:36:09;100839.84;;;19.18;37.87
47154;BME280;32907;41.412;2.164;2023-12-22T04:38:38;100854.78;;;19.15;38.06
47154;BME280;32907;41.412;2.164;2023-12-22T04:41:08;100859.69;;;19.18;37.85
47154;BME280;32907;41.412;2.164;2023-12-22T04:43:36;100847.72;;;19.19;37.74
47154;BME280;32907;41.412;2.164;2023-12-22T04:46:04;100847.44;;;19.16;37.48
47154;BME280;32907;41.412;2.164;2023-12-22T04:48:32;100842.59;;;19.13;37.77
47154;BME280;32907;41.412;2.164;2023-12-22T04:51:01;100847.72;;;19.14;37.67
47154;BME280;32907;41.412;2.164;2023-12-22T04:53:30;100847.19;;;19.17;37.72
47154;BME280;32907;41.412;2.164;2023-12-22T04:55:59;100852.88;;;19.16;37.56
47154;BME280;32907;41.412;2.164;2023-12-22T04:58:27;100868.94;;;19.17;37.44
47154;BME280;32907;41.412;2.164;2023-12-22T05:00:56;100876.00;;;19.13;37.55
47154;BME280;32907;41.412;2.164;2023-12-22T05:03:24;100872.19;;;19.14;37.66
47154;BME280;32907;41.412;2.164;2023-12-22T05:05:52;100863.50;;;19.12;37.28
47154;BME280;32907;41.412;2.164;2023-12-22T05:08:20;100877.09;;;19.12;37.66
47154;BME280;32907;41.412;2.164;2023-12-22T05:10:48;100865.69;;;19.10;37.59
47154;BME280;32907;41.412;2.164;2023-12-22T05:13:16;100866.81;;;19.09;37.61
47154;BME280;32907;41.412;2.164;2023-12-22T05:15:44;100883.63;;;19.11;37.64
47154;BME280;32907;41.412;2.164;2023-12-22T05:18:13;100864.63;;;19.06;37.58
47154;BME280;32907;41.412;2.164;2023-12-22T05:20:42;100873.81;;;19.15;37.70
47154;BME280;32907;41.412;2.164;2023-12-22T05:23:11;100840.16;;;19.06;37.37
47154;BME280;32907;41.412;2.164;2023-12-22T05:25:40;100859.13;;;19.16;37.30
47154;BME280;32907;41.412;2.164;2023-12-22T05:28:08;100856.97;;;19.13;37.22
47154;BME280;32907;41.412;2.164;2023-12-22T05:30:36;100854.25;;;19.13;37.09
47154;BME280;32907;41.412;2.164;2023-12-22T05:33:05;100856.16;;;19.13;37.43
47154;BME280;32907;41.412;2.164;2023-12-22T05:35:33;100849.94;;;19.12;37.11
47154;BME280;32907;41.412;2.164;2023-12-22T05:38:04;100861.88;;;19.11;37.27
47154;BME280;32907;41.412;2.164;2023-12-22T05:40:32;100860.78;;;19.12;37.71
47154;BME280;32907;41.412;2.164;2023-12-22T05:43:01;100860.28;;;19.10;37.86
47154;BME280;32907;41.412;2.164;2023-12-22T05:45:29;100851.25;;;19.15;37.93
47154;BME280;32907;41.412;2.164;2023-12-22T05:47:58;100837.72;;;19.05;37.87
47154;BME280;32907;41.412;2.164;2023-12-22T05:50:26;100855.88;;;19.14;38.03
47154;BME280;32907;41.412;2.164;2023-12-22T05:52:55;100866.22;;;19.17;38.13
47154;BME280;32907;41.412;2.164;2023-12-22T05:55:23;100863.50;;;19.17;37.88
47154;BME280;32907;41.412;2.164;2023-12-22T05:57:51;100858.31;;;19.16;38.40
47154;BME280;32907;41.412;2.164;2023-12-22T06:00:21;100861.84;;;19.16;38.23
47154;BME280;32907;41.412;2.164;2023-12-22T06:02:49;100856.69;;;19.15;37.51
47154;BME280;32907;41.412;2.164;2023-12-22T06:05:17;100854.78;;;19.15;37.46
47154;BME280;32907;41.412;2.164;2023-12-22T06:07:45;100850.16;;;19.21;37.74
47154;BME280;32907;41.412;2.164;2023-12-22T06:10:14;100848.78;;;19.23;38.04
47154;BME280;32907;41.412;2.164;2023-12-22T06:12:42;100851.22;;;19.30;37.84
47154;BME280;32907;41.412;2.164;2023-12-22T06:15:10;100731.34;;;18.52;37.93
47154;BME280;32907;41.412;2.164;2023-12-22T06:17:38;100870.22;;;19.35;37.85
47154;BME280;32907;41.412;2.164;2023-12-22T06:20:07;100867.47;;;19.40;38.19
47154;BME280;32907;41.412;2.164;2023-12-22T06:22:36;100878.91;;;19.42;37.48
47154;BME280;32907;41.412;2.164;2023-12-22T06:25:04;100871.28;;;19.44;37.26
47154;BME280;32907;41.412;2.164;2023-12-22T06:27:35;100889.47;;;19.49;36.85
47154;BME280;32907;41.412;2.164;2023-12-22T06:30:05;100884.59;;;19.51;36.81
47154;BME280;32907;41.412;2.164;2023-12-22T06:32:34;100870.69;;;19.52;36.89
47154;BME280;32907;41.412;2.164;2023-12-22T06:35:02;100885.38;;;19.56;36.92
47154;BME280;32907;41.412;2.164;2023-12-22T06:37:31;100881.81;;;19.56;36.85
47154;BME280;32907;41.412;2.164;2023-12-22T06:39:59;100880.50;;;19.59;37.00
47154;BME280;32907;41.412;2.164;2023-12-22T06:42:27;100885.66;;;19.60;36.73
47154;BME280;32907;41.412;2.164;2023-12-22T06:44:55;100882.41;;;19.58;36.77
47154;BME280;32907;41.412;2.164;2023-12-22T06:47:23;100884.84;;;19.60;37.10
47154;BME280;32907;41.412;2.164;2023-12-22T06:49:51;100878.84;;;19.63;37.01
47154;BME280;32907;41.412;2.164;2023-12-22T06:52:20;100896.25;;;19.67;37.03
47154;BME280;32907;41.412;2.164;2023-12-22T06:54:49;100893.22;;;19.68;36.79
47154;BME280;32907;41.412;2.164;2023-12-22T06:57:18;100887.53;;;19.65;36.31
47154;BME280;32907;41.412;2.164;2023-12-22T06:59:48;100895.13;;;19.68;36.14
47154;BME280;32907;41.412;2.164;2023-12-22T07:02:18;100897.84;;;19.68;36.04
47154;BME280;32907;41.412;2.164;2023-12-22T07:07:37;100898.97;;;19.67;36.24
47154;BME280;32907;41.412;2.164;2023-12-22T07:10:05;100905.75;;;19.69;36.04
47154;BME280;32907;41.412;2.164;2023-12-22T07:12:33;100901.13;;;19.65;36.11
47154;BME280;32907;41.412;2.164;2023-12-22T07:15:02;100907.63;;;19.74;36.12
47154;BME280;32907;41.412;2.164;2023-12-22T07:17:30;100904.09;;;19.73;36.34
47154;BME280;32907;41.412;2.164;2023-12-22T07:19:58;100904.34;;;19.72;36.40
47154;BME280;32907;41.412;2.164;2023-12-22T07:22:26;100911.97;;;19.75;36.17
47154;BME280;32907;41.412;2.164;2023-12-22T07:24:55;100916.03;;;19.77;36.29
47154;BME280;32907;41.412;2.164;2023-12-22T07:27:25;100911.69;;;19.76;35.95
47154;BME280;32907;41.412;2.164;2023-12-22T07:29:55;100912.22;;;19.78;36.28
47154;BME280;32907;41.412;2.164;2023-12-22T07:32:23;100907.31;;;19.80;35.78
47154;BME280;32907;41.412;2.164;2023-12-22T07:34:51;100904.03;;;19.83;36.00
47154;BME280;32907;41.412;2.164;2023-12-22T07:37:19;100898.84;;;19.87;35.80
47154;BME280;32907;41.412;2.164;2023-12-22T07:39:50;100889.31;;;19.90;36.40
47154;BME280;32907;41.412;2.164;2023-12-22T07:42:18;100908.06;;;19.91;36.23
47154;BME280;32907;41.412;2.164;2023-12-22T07:44:46;100910.50;;;19.93;36.65
47154;BME280;32907;41.412;2.164;2023-12-22T07:47:14;100909.41;;;19.94;38.20
47154;BME280;32907;41.412;2.164;2023-12-22T07:49:43;100931.47;;;19.97;38.42
47154;BME280;32907;41.412;2.164;2023-12-22T07:52:13;100912.66;;;20.01;47.63
47154;BME280;32907;41.412;2.164;2023-12-22T07:54:41;100923.16;;;20.18;39.92
47154;BME280;32907;41.412;2.164;2023-12-22T07:57:10;100927.47;;;20.24;38.10
47154;BME280;32907;41.412;2.164;2023-12-22T07:59:38;100938.66;;;20.22;37.37
47154;BME280;32907;41.412;2.164;2023-12-22T08:02:06;100939.75;;;20.21;37.43
47154;BME280;32907;41.412;2.164;2023-12-22T08:04:34;100939.75;;;20.21;36.87
47154;BME280;32907;41.412;2.164;2023-12-22T08:07:02;100941.38;;;20.22;36.84
47154;BME280;32907;41.412;2.164;2023-12-22T08:09:31;100945.75;;;20.18;37.58
47154;BME280;32907;41.412;2.164;2023-12-22T08:12:00;100960.97;;;20.19;37.58
47154;BME280;32907;41.412;2.164;2023-12-22T08:14:29;100953.09;;;20.18;37.16
47154;BME280;32907;41.412;2.164;2023-12-22T08:16:57;100956.63;;;20.18;36.60
47154;BME280;32907;41.412;2.164;2023-12-22T08:19:26;100974.06;;;20.17;36.58
47154;BME280;32907;41.412;2.164;2023-12-22T08:21:58;100954.50;;;20.15;36.47
47154;BME280;32907;41.412;2.164;2023-12-22T08:24:31;100986.59;;;20.13;36.79
47154;BME280;32907;41.412;2.164;2023-12-22T08:27:00;100987.16;;;20.15;36.88
47154;BME280;32907;41.412;2.164;2023-12-22T08:29:28;100992.91;;;20.14;37.16
47154;BME280;32907;41.412;2.164;2023-12-22T08:31:56;100986.59;;;20.13;37.41
47154;BME280;32907;41.412;2.164;2023-12-22T08:34:24;100969.22;;;20.09;37.34
47154;BME280;32907;41.412;2.164;2023-12-22T08:36:52;100972.19;;;20.12;37.33
47154;BME280;32907;41.412;2.164;2023-12-22T08:39:21;100969.47;;;20.12;37.80
47154;BME280;32907;41.412;2.164;2023-12-22T08:41:49;100964.31;;;20.11;38.44
47154;BME280;32907;41.412;2.164;2023-12-22T08:44:18;100978.94;;;20.20;38.84
47154;BME280;32907;41.412;2.164;2023-12-22T08:46:47;100980.59;;;20.21;38.02
47154;BME280;32907;41.412;2.164;2023-12-22T08:49:16;100977.88;;;20.21;38.21
47154;BME280;32907;41.412;2.164;2023-12-22T08:51:44;100991.44;;;20.26;37.79
47154;BME280;32907;41.412;2.164;2023-12-22T08:54:12;100999.09;;;20.24;37.06
47154;BME280;32907;41.412;2.164;2023-12-22T08:56:41;101007.25;;;20.24;37.16
47154;BME280;32907;41.412;2.164;2023-12-22T08:59:10;101006.44;;;20.24;37.25
47154;BME280;32907;41.412;2.164;2023-12-22T09:01:38;101013.00;;;20.23;36.81
47154;BME280;32907;41.412;2.164;2023-12-22T09:04:10;101007.84;;;20.21;37.08
47154;BME280;32907;41.412;2.164;2023-12-22T09:06:39;100998.81;;;20.21;36.91
47154;BME280;32907;41.412;2.164;2023-12-22T09:09:07;101005.66;;;20.18;37.00
47154;BME280;32907;41.412;2.164;2023-12-22T09:11:36;101006.19;;;20.20;37.19
47154;BME280;32907;41.412;2.164;2023-12-22T09:14:05;101004.56;;;20.19;36.97
47154;BME280;32907;41.412;2.164;2023-12-22T09:16:37;100998.00;;;20.20;36.85
47154;BME280;32907;41.412;2.164;2023-12-22T09:19:06;100994.47;;;20.20;37.13
47154;BME280;32907;41.412;2.164;2023-12-22T09:21:35;100993.94;;;20.18;37.22
47154;BME280;32907;41.412;2.164;2023-12-22T09:24:03;100992.31;;;20.17;36.90
47154;BME280;32907;41.412;2.164;2023-12-22T09:26:33;100990.44;;;20.12;36.67
47154;BME280;32907;41.412;2.164;2023-12-22T09:29:01;101008.13;;;20.15;36.78
47154;BME280;32907;41.412;2.164;2023-12-22T09:31:29;101007.56;;;20.18;37.08
47154;BME280;32907;41.412;2.164;2023-12-22T09:33:58;101021.97;;;20.18;37.22
47154;BME280;32907;41.412;2.164;2023-12-22T09:36:26;101036.94;;;20.21;38.01
47154;BME280;32907;41.412;2.164;2023-12-22T09:38:54;101040.47;;;20.26;37.59
47154;BME280;32907;41.412;2.164;2023-12-22T09:41:22;101049.44;;;20.32;37.95
47154;BME280;32907;41.412;2.164;2023-12-22T09:43:51;101062.53;;;20.30;38.10
47154;BME280;32907;41.412;2.164;2023-12-22T09:46:23;101069.28;;;20.37;38.01
47154;BME280;32907;41.412;2.164;2023-12-22T09:48:52;101043.47;;;20.25;38.05
47154;BME280;32907;41.412;2.164;2023-12-22T09:51:21;101059.44;;;20.42;38.50
47154;BME280;32907;41.412;2.164;2023-12-22T09:53:49;101069.81;;;20.45;38.38
47154;BME280;32907;41.412;2.164;2023-12-22T09:56:18;101068.19;;;20.44;38.43
47154;BME280;32907;41.412;2.164;2023-12-22T09:58:48;101074.72;;;20.48;38.53
47154;BME280;32907;41.412;2.164;2023-12-22T10:01:19;101067.06;;;20.50;38.68
47154;BME280;32907;41.412;2.164;2023-12-22T10:03:50;101055.63;;;20.48;38.38
47154;BME280;32907;41.412;2.164;2023-12-22T10:06:19;101062.72;;;20.49;38.12
47154;BME280;32907;41.412;2.164;2023-12-22T10:08:48;101066.81;;;20.46;41.21
47154;BME280;32907;41.412;2.164;2023-12-22T10:11:20;101064.63;;;20.48;40.32
47154;BME280;32907;41.412;2.164;2023-12-22T10:13:50;101080.09;;;20.53;38.88
47154;BME280;32907;41.412;2.164;2023-12-22T10:16:21;101085.81;;;20.56;38.78
47154;BME280;32907;41.412;2.164;2023-12-22T10:18:49;101096.72;;;20.56;38.11
47154;BME280;32907;41.412;2.164;2023-12-22T10:21:18;101091.56;;;20.55;38.21
47154;BME280;32907;41.412;2.164;2023-12-22T10:23:47;101086.41;;;20.53;38.15
47154;BME280;32907;41.412;2.164;2023-12-22T10:26:15;101082.31;;;20.51;38.59
47154;BME280;32907;41.412;2.164;2023-12-22T10:28:47;101079.03;;;20.54;38.50
47154;BME280;32907;41.412;2.164;2023-12-22T10:31:17;101060.50;;;20.56;38.36
47154;BME280;32907;41.412;2.164;2023-12-22T10:33:45;101056.44;;;20.53;38.59
47154;BME280;32907;41.412;2.164;2023-12-22T10:36:13;101068.66;;;20.56;38.44
47154;BME280;32907;41.412;2.164;2023-12-22T10:38:42;101065.13;;;20.55;38.49
47154;BME280;32907;41.412;2.164;2023-12-22T10:41:10;101049.06;;;20.54;38.48
47154;BME280;32907;41.412;2.164;2023-12-22T10:43:40;101056.16;;;20.50;37.95
47154;BME280;32907;41.412;2.164;2023-12-22T10:46:11;101068.69;;;20.51;37.68
47154;BME280;32907;41.412;2.164;2023-12-22T10:48:41;101069.50;;;20.51;38.02
47154;BME280;32907;41.412;2.164;2023-12-22T10:51:10;101057.25;;;20.49;37.84
47154;BME280;32907;41.412;2.164;2023-12-22T10:53:42;101029.78;;;20.40;37.42
47154;BME280;32907;41.412;2.164;2023-12-22T10:56:11;101033.84;;;20.48;37.79
47154;BME280;32907;41.412;2.164;2023-12-22T10:58:40;101034.13;;;20.46;37.70
47154;BME280;32907;41.412;2.164;2023-12-22T11:01:11;101034.38;;;20.50;39.20
47154;BME280;32907;41.412;2.164;2023-12-22T11:03:44;101039.81;;;20.50;39.11
47154;BME280;32907;41.412;2.164;2023-12-22T11:06:15;101039.50;;;20.56;38.49
47154;BME280;32907;41.412;2.164;2023-12-22T11:08:46;101041.41;;;20.56;38.01
47154;BME280;32907;41.412;2.164;2023-12-22T11:11:33;101027.22;;;20.59;39.44
47154;BME280;32907;41.412;2.164;2023-12-22T11:14:02;101012.50;;;20.60;38.21
47154;BME280;32907;41.412;2.164;2023-12-22T11:16:32;101011.69;;;20.59;37.12
47154;BME280;32907;41.412;2.164;2023-12-22T11:19:03;101026.41;;;20.58;37.76
47154;BME280;32907;41.412;2.164;2023-12-22T11:21:32;101019.56;;;20.61;38.68
47154;BME280;32907;41.412;2.164;2023-12-22T11:24:03;101012.75;;;20.63;38.80
47154;BME280;32907;41.412;2.164;2023-12-22T11:26:32;100997.81;;;20.56;39.03
47154;BME280;32907;41.412;2.164;2023-12-22T11:29:02;101003.81;;;20.58;39.33
47154;BME280;32907;41.412;2.164;2023-12-22T11:31:31;100991.50;;;20.60;40.27
47154;BME280;32907;41.412;2.164;2023-12-22T11:34:01;100996.69;;;20.62;38.85
47154;BME280;32907;41.412;2.164;2023-12-22T11:36:40;100992.31;;;20.61;37.49
47154;BME280;32907;41.412;2.164;2023-12-22T11:39:09;100991.00;;;20.58;37.91
47154;BME280;32907;41.412;2.164;2023-12-22T11:41:39;100978.19;;;20.59;39.01
47154;BME280;32907;41.412;2.164;2023-12-22T11:44:08;100975.72;;;20.62;38.54
47154;BME280;32907;41.412;2.164;2023-12-22T11:46:37;100969.47;;;20.62;38.36
47154;BME280;32907;41.412;2.164;2023-12-22T11:49:05;100968.09;;;20.59;38.10
47154;BME280;32907;41.412;2.164;2023-12-22T11:51:34;100971.63;;;20.60;38.16
47154;BME280;32907;41.412;2.164;2023-12-22T11:54:03;100971.38;;;20.61;38.37
47154;BME280;32907;41.412;2.164;2023-12-22T11:56:31;100960.19;;;20.63;37.85
47154;BME280;32907;41.412;2.164;2023-12-22T11:59:02;100950.38;;;20.62;37.82
47154;BME280;32907;41.412;2.164;2023-12-22T12:01:30;100964.00;;;20.62;38.12
47154;BME280;32907;41.412;2.164;2023-12-22T12:04:03;100968.88;;;20.65;38.03
47154;BME280;32907;41.412;2.164;2023-12-22T12:06:34;100967.78;;;20.66;38.60
47154;BME280;32907;41.412;2.164;2023-12-22T12:09:06;100961.22;;;20.67;38.74
47154;BME280;32907;41.412;2.164;2023-12-22T12:14:29;100953.84;;;20.67;39.39
47154;BME280;32907;41.412;2.164;2023-12-22T12:17:03;100946.22;;;20.70;41.92
47154;BME280;32907;41.412;2.164;2023-12-22T12:19:35;100948.06;;;20.79;40.88
47154;BME280;32907;41.412;2.164;2023-12-22T12:22:05;100943.63;;;20.83;41.35
47154;BME280;32907;41.412;2.164;2023-12-22T12:24:36;100939.00;;;20.84;39.70
47154;BME280;32907;41.412;2.164;2023-12-22T12:27:06;100936.28;;;20.84;46.51
47154;BME280;32907;41.412;2.164;2023-12-22T12:29:34;100943.59;;;20.88;42.84
47154;BME280;32907;41.412;2.164;2023-12-22T12:32:05;100931.00;;;20.92;44.82
47154;BME280;32907;41.412;2.164;2023-12-22T12:34:34;100922.78;;;20.98;41.09
47154;BME280;32907;41.412;2.164;2023-12-22T12:37:05;100909.69;;;21.00;40.55
47154;BME280;32907;41.412;2.164;2023-12-22T12:39:35;100904.53;;;20.98;40.31
47154;BME280;32907;41.412;2.164;2023-12-22T12:42:07;100881.69;;;20.94;40.63
47154;BME280;32907;41.412;2.164;2023-12-22T12:44:37;100909.16;;;20.98;40.56
47154;BME280;32907;41.412;2.164;2023-12-22T12:47:15;100909.16;;;20.98;40.18
47154;BME280;32907;41.412;2.164;2023-12-22T12:49:45;100905.91;;;20.95;40.19
47154;BME280;32907;41.412;2.164;2023-12-22T12:52:13;100890.47;;;20.86;40.46
47154;BME280;32907;41.412;2.164;2023-12-22T12:54:42;100893.41;;;20.94;40.53
47154;BME280;32907;41.412;2.164;2023-12-22T12:57:15;100896.34;;;20.98;40.17
47154;BME280;32907;41.412;2.164;2023-12-22T12:59:47;100895.25;;;20.99;39.97
47154;BME280;32907;41.412;2.164;2023-12-22T13:02:17;100896.59;;;21.02;40.23
47154;BME280;32907;41.412;2.164;2023-12-22T13:04:45;100890.03;;;21.03;40.10
47154;BME280;32907;41.412;2.164;2023-12-22T13:07:14;100885.94;;;21.00;40.16
47154;BME280;32907;41.412;2.164;2023-12-22T13:09:50;100878.59;;;21.01;39.96